A- A+ FrançaisEnglishEspañol中国

Services sur Internet Soldes sur Internet Des idées de cadeaux Météo Météo aéro

La météo à : Autours de vous Tarbes-Lourdes-PyrénéesPontoise-Cormeilles-En-VexinChateauroux-Deols Paris-Orly

manche à air

La météo aéronautique pour les pilotes, la préparation du vol avec les METAR (METeorological Aerodrome Report, message d'observation des conditions météorologiques pour l'aviation) et Les TAF (Terminal Aerodrome Forecast : message de prévision à court terme des conditions météorologiques pour l'aviation). Et les autres ressources comme les VAC (Visual Approch Chart) et les NOTAM (Notice To Airman) pour préprer les vols.

Aéroport Koala (Canada) / OACI CYOA/ IATA YOA

L'altitude de l'aéroport Koala est de 468 m = 1535 ft. Il est situé à proximité de Ekati (Canada). La météo générale à 5 jours est disponible pour Lupin situé à 121.8 km.

METAR de l'aéroport Koala - CYOA

CYOA 191743Z 13016KT 10SM OVC005 05/04 A2966 RMK ST8

Décodage du METAR de l'aéroport Koala (CA)

METAR émis par CYOA le jeudi 19 septembre 2019 à 17:43 heure TU. Attention ce METAR est obsolète car il a été émis il y a 8 heure et 15 minutes.

La visibilité est de 16.1 km = 10 sm.

La température est de 5°C = 41 °F et le point rosée est de 4°C = 39 °F . Ce qui correspond à 93% d'humidité relative.

Le QNH est de 1004 hPa = 29.65 inHg

Vent de 16 kt = 30 km/h, orienté à 130°.

Nuages : Couverture nuageuse soudée à 500 ft = 150 mètres.

RMK ST8

TAF de l'aéroport Koala - CYOA

CYOA 301852Z 3019/3023 21008KT P6SM SCT230 BECMG 3019/3021 21015KT RMK NXT FCST WILL BE ISSUED AT 011245Z

CYOA 301852Z 3019/3023 21008KT P6SM nuages épars à 230 devenant 3019/3021 21015KT remarques NXT trombe ST WILL BE ISSUED AT 011245Z

Aéroport à proximité de Koala

Météo générale à 5 jours à Lupin (121.8 km)Aéroport Yellowknife (312 km)Aéroport Coppermine (Kugluktuk?) (401 km)Aéroport Fort Resolution (421 km)Aéroport Hay River (503 km)Aéroport Fort Providence (515 km)Aéroport Fort Smith (525 km)

Vue aérienne de l'aéroport Koala

NOTAM de l'aéroport Koala

Les NOTAM sont fournis sans aucune garantie de leur actualité. Le pilote est le seul responsable de la vérification de sa validité avant de l'utiliser opérationnellement pour préparer un vol ou l'utiliser lors de sa navigation.

Pas de NOTAM

Sources des données